Time;durP1;ratioP1;P1;durP2;ratioP2;P2;SDS_P1;SDS_P2;PMS_P1;PMS_P2;Temp;Humidity;BMP_temperature;BMP_pressure;BME280_temperature;BME280_humidity;BME280_pressure;Samples;Min_cycle;Max_cycle;Signal;HPM_P1;HPM_P2
2022/10/10 00:01:55;;;;;;;3.92;3.55;;;10.80;99.90;;;;;;5035221;28;20221;-91
2022/10/10 00:04:21;;;;;;;5.10;3.88;;;10.80;99.90;;;;;;5035541;28;20206;-91
2022/10/10 00:06:49;;;;;;;3.90;3.28;;;10.80;99.90;;;;;;5035461;28;20206;-91
2022/10/10 00:09:16;;;;;;;3.58;3.22;;;10.80;99.90;;;;;;5035567;28;20253;-91
2022/10/10 00:11:43;;;;;;;4.00;3.28;;;10.80;99.90;;;;;;5035389;28;20216;-90
2022/10/10 00:14:10;;;;;;;6.00;3.08;;;10.80;99.90;;;;;;5035218;28;20585;-91
2022/10/10 00:16:37;;;;;;;3.90;3.60;;;10.80;99.90;;;;;;5035419;28;20208;-91
2022/10/10 00:19:03;;;;;;;9.43;4.05;;;10.90;99.90;;;;;;5035274;28;20226;-91
2022/10/10 00:21:30;;;;;;;4.47;3.60;;;10.90;99.90;;;;;;5035079;28;20214;-91
2022/10/10 00:23:59;;;;;;;3.95;3.55;;;10.90;99.90;;;;;;5035558;28;20203;-92
2022/10/10 00:26:26;;;;;;;4.20;3.60;;;10.90;99.90;;;;;;5034563;28;20218;-92
2022/10/10 00:28:53;;;;;;;3.83;3.53;;;11.00;99.90;;;;;;5037295;28;20230;-92
2022/10/10 00:31:20;;;;;;;3.85;3.55;;;11.00;99.90;;;;;;5038048;28;20686;-92
2022/10/10 00:33:47;;;;;;;4.00;3.47;;;11.00;99.90;;;;;;5038382;28;20213;-91
2022/10/10 00:36:14;;;;;;;5.68;3.50;;;11.00;99.90;;;;;;5038280;28;20210;-91
2022/10/10 00:38:41;;;;;;;4.53;2.92;;;11.00;99.90;;;;;;5038359;28;20711;-91
2022/10/10 00:41:09;;;;;;;4.35;3.95;;;11.00;99.90;;;;;;5037820;28;20285;-92
2022/10/10 00:43:36;;;;;;;4.72;3.45;;;11.00;99.90;;;;;;5037991;28;20215;-92
2022/10/10 00:46:03;;;;;;;4.00;3.60;;;11.10;99.90;;;;;;5037996;28;20733;-92
2022/10/10 00:48:32;;;;;;;3.75;3.45;;;11.10;99.90;;;;;;5037958;28;20700;-91
2022/10/10 00:51:03;;;;;;;4.07;3.45;;;11.10;99.90;;;;;;5037873;28;20210;-91
2022/10/10 00:53:34;;;;;;;4.22;3.35;;;11.10;99.90;;;;;;5037846;28;20293;-92
2022/10/10 00:56:02;;;;;;;3.88;3.53;;;11.20;99.90;;;;;;5037464;28;20202;-92
2022/10/10 00:58:31;;;;;;;3.85;3.30;;;11.20;99.90;;;;;;5037441;28;20229;-92
2022/10/10 01:00:58;;;;;;;4.38;3.70;;;11.20;99.90;;;;;;5038318;28;20199;-91
2022/10/10 01:03:25;;;;;;;4.03;3.10;;;11.20;99.90;;;;;;5039684;28;20649;-91
2022/10/10 01:05:52;;;;;;;3.85;3.42;;;11.20;99.90;;;;;;5044199;28;20293;-93
2022/10/10 01:08:20;;;;;;;3.53;3.10;;;11.20;99.90;;;;;;5036979;28;20241;-91
2022/10/10 01:11:03;;;;;;;4.40;3.42;;;11.20;99.90;;;;;;5037198;28;20694;-91
2022/10/10 01:13:39;;;;;;;3.70;3.35;;;11.10;99.90;;;;;;5036951;28;20199;-92
2022/10/10 01:16:10;;;;;;;3.65;3.30;;;11.10;99.90;;;;;;5038360;28;20194;-92
2022/10/10 01:18:44;;;;;;;5.10;3.55;;;11.10;99.90;;;;;;5037394;28;20230;-92
2022/10/10 01:21:23;;;;;;;5.20;3.53;;;11.10;99.90;;;;;;5037041;28;20571;-92
2022/10/10 01:24:37;;;;;;;4.13;3.75;;;11.10;99.90;;;;;;5038639;28;20202;-91
2022/10/10 01:27:18;;;;;;;5.57;3.60;;;11.10;99.90;;;;;;5039284;28;20210;-92
2022/10/10 01:29:50;;;;;;;4.40;3.45;;;11.20;99.90;;;;;;5056189;23;20234;-66
2022/10/10 01:32:23;;;;;;;5.93;4.18;;;11.20;99.90;;;;;;5031870;28;20603;-65
2022/10/10 01:35:00;;;;;;;5.75;3.78;;;11.20;99.90;;;;;;5031583;28;20231;-66
2022/10/10 01:37:34;;;;;;;3.42;3.13;;;11.20;99.90;;;;;;5032388;28;20580;-66
2022/10/10 01:40:07;;;;;;;4.38;3.97;;;11.20;99.90;;;;;;5031531;28;20206;-66
2022/10/10 01:42:40;;;;;;;4.05;3.65;;;11.20;99.90;;;;;;5031784;28;20578;-65
2022/10/10 01:45:09;;;;;;;3.70;3.40;;;11.20;99.90;;;;;;5032287;28;20587;-65
2022/10/10 01:47:37;;;;;;;4.28;3.88;;;11.20;99.90;;;;;;5032353;28;20202;-66
2022/10/10 01:50:09;;;;;;;4.50;4.10;;;11.20;99.90;;;;;;5032212;28;20202;-65
2022/10/10 01:52:48;;;;;;;5.43;4.32;;;11.20;99.90;;;;;;5031629;28;20217;-65
2022/10/10 01:55:29;;;;;;;9.15;4.18;;;11.10;99.90;;;;;;5032088;28;20226;-65
2022/10/10 01:58:06;;;;;;;5.07;4.13;;;11.10;99.90;;;;;;5032089;28;20203;-65
2022/10/10 02:00:45;;;;;;;4.22;3.55;;;11.10;99.90;;;;;;5031990;28;20690;-68
2022/10/10 02:03:16;;;;;;;4.07;3.70;;;11.10;99.90;;;;;;5031140;28;20203;-67
2022/10/10 02:05:47;;;;;;;4.20;3.80;;;11.10;99.90;;;;;;5032091;28;20227;-68
2022/10/10 02:08:18;;;;;;;3.65;3.35;;;11.10;99.90;;;;;;5031876;28;20780;-68
2022/10/10 02:10:49;;;;;;;4.43;4.03;;;11.10;99.90;;;;;;5031979;28;20297;-68
2022/10/10 02:13:18;;;;;;;4.78;3.92;;;11.10;99.90;;;;;;5031310;28;20578;-68
2022/10/10 02:15:48;;;;;;;4.20;3.60;;;11.10;99.90;;;;;;5032182;28;20304;-68
2022/10/10 02:18:18;;;;;;;4.32;3.60;;;11.10;99.90;;;;;;5031709;28;20202;-68
2022/10/10 02:20:47;;;;;;;4.68;4.13;;;11.10;99.90;;;;;;5031628;28;20202;-68
2022/10/10 02:23:17;;;;;;;4.43;3.58;;;11.10;99.90;;;;;;5031071;28;20198;-68
2022/10/10 02:25:48;;;;;;;5.25;4.53;;;11.10;99.90;;;;;;5031546;28;20693;-68
2022/10/10 02:28:21;;;;;;;4.55;4.07;;;11.10;99.90;;;;;;5031271;28;20209;-68
2022/10/10 02:30:52;;;;;;;4.30;3.90;;;11.10;99.90;;;;;;5031715;28;20214;-68
2022/10/10 02:33:23;;;;;;;4.78;4.22;;;11.10;99.90;;;;;;5030918;28;20587;-68
2022/10/10 02:35:51;;;;;;;4.68;3.97;;;11.20;99.90;;;;;;5031466;28;20202;-68
2022/10/10 02:38:19;;;;;;;4.53;4.13;;;11.10;99.90;;;;;;5031412;28;20206;-68
2022/10/10 02:40:47;;;;;;;5.40;4.75;;;11.20;99.90;;;;;;5031484;28;20209;-68
2022/10/10 02:43:15;;;;;;;5.22;4.40;;;11.20;99.90;;;;;;5030724;28;20203;-68
2022/10/10 02:45:42;;;;;;;7.45;4.85;;;11.20;99.90;;;;;;5031287;28;20226;-68
2022/10/10 02:48:10;;;;;;;6.35;4.82;;;11.20;99.90;;;;;;5031222;28;20209;-68
2022/10/10 02:50:37;;;;;;;6.10;5.25;;;11.10;99.90;;;;;;5031056;28;20206;-68
2022/10/10 02:53:04;;;;;;;4.82;4.28;;;11.10;99.90;;;;;;5030759;28;20202;-68
2022/10/10 02:55:31;;;;;;;4.47;4.07;;;11.20;99.90;;;;;;5031045;28;20223;-68
2022/10/10 02:57:57;;;;;;;4.50;3.95;;;11.20;99.90;;;;;;5031217;28;20593;-68
2022/10/10 03:00:24;;;;;;;4.80;3.80;;;11.10;99.90;;;;;;5030964;28;20202;-68
2022/10/10 03:02:51;;;;;;;4.78;3.70;;;11.10;99.90;;;;;;5030635;28;20210;-68
2022/10/10 03:05:19;;;;;;;5.15;4.10;;;11.10;99.90;;;;;;5030622;28;20271;-68
2022/10/10 03:07:45;;;;;;;4.70;4.13;;;11.10;99.90;;;;;;5031130;28;20214;-68
2022/10/10 03:10:12;;;;;;;4.68;4.18;;;11.10;99.90;;;;;;5030756;28;20212;-68
2022/10/10 03:12:39;;;;;;;3.80;3.35;;;11.10;99.90;;;;;;5030399;28;20233;-68
2022/10/10 03:15:06;;;;;;;4.55;3.90;;;11.10;99.90;;;;;;5030861;28;20223;-68
2022/10/10 03:17:33;;;;;;;3.45;3.15;;;11.10;99.90;;;;;;5030786;28;20202;-68
2022/10/10 03:20:00;;;;;;;4.25;3.85;;;11.10;99.90;;;;;;5030926;28;20206;-68
2022/10/10 03:22:28;;;;;;;4.13;3.60;;;11.10;99.90;;;;;;5030038;28;20209;-68
2022/10/10 03:24:55;;;;;;;8.82;3.88;;;11.00;99.90;;;;;;5030693;28;20233;-68
2022/10/10 03:27:21;;;;;;;4.00;3.35;;;11.00;99.90;;;;;;5030485;28;20572;-68
2022/10/10 03:29:48;;;;;;;4.32;3.85;;;11.00;99.90;;;;;;5030428;28;20218;-68
2022/10/10 03:32:15;;;;;;;4.70;4.10;;;11.00;99.90;;;;;;5029890;28;20206;-68
2022/10/10 03:34:41;;;;;;;4.35;3.50;;;11.00;99.90;;;;;;5030291;28;20237;-68
2022/10/10 03:37:08;;;;;;;7.20;5.43;;;11.00;99.90;;;;;;5030132;28;20221;-68
2022/10/10 03:39:36;;;;;;;4.50;4.10;;;11.00;99.90;;;;;;5020877;28;20214;-68
2022/10/10 03:42:03;;;;;;;6.28;4.05;;;11.00;99.90;;;;;;5018034;28;20196;-68
2022/10/10 03:44:30;;;;;;;6.88;3.90;;;11.00;99.90;;;;;;5018951;28;20222;-68
2022/10/10 03:46:57;;;;;;;4.50;3.55;;;11.00;99.90;;;;;;5020215;28;20229;-67
2022/10/10 03:49:23;;;;;;;5.05;4.10;;;11.00;99.90;;;;;;5018663;28;20597;-67
2022/10/10 03:51:50;;;;;;;8.60;6.78;;;11.10;99.90;;;;;;5018446;28;20202;-67
2022/10/10 03:54:17;;;;;;;18.63;9.95;;;11.10;99.90;;;;;;5019939;28;20766;-67
2022/10/10 03:56:45;;;;;;;11.82;7.63;;;11.10;99.90;;;;;;5009939;28;20195;-67
2022/10/10 03:59:12;;;;;;;9.10;5.82;;;11.10;99.90;;;;;;5012412;28;20209;-67
2022/10/10 04:01:39;;;;;;;5.78;4.78;;;11.10;99.90;;;;;;5017860;28;20210;-68
2022/10/10 04:04:06;;;;;;;6.13;5.03;;;11.10;99.90;;;;;;5022046;28;20210;-67
2022/10/10 04:06:32;;;;;;;5.55;4.57;;;11.10;99.90;;;;;;5012067;28;20215;-68
2022/10/10 04:08:59;;;;;;;5.15;3.80;;;11.20;99.90;;;;;;5021634;28;20199;-68
2022/10/10 04:11:26;;;;;;;6.25;4.03;;;11.20;99.90;;;;;;5020850;28;20209;-68
2022/10/10 04:13:54;;;;;;;5.50;3.80;;;11.20;99.90;;;;;;5023037;28;20246;-68
2022/10/10 04:16:21;;;;;;;4.78;4.20;;;11.30;99.90;;;;;;5023195;28;20195;-68
2022/10/10 04:18:47;;;;;;;3.88;3.47;;;11.30;99.90;;;;;;5024906;28;20600;-67
2022/10/10 04:21:14;;;;;;;4.82;4.07;;;11.30;99.90;;;;;;5021526;28;20574;-67
2022/10/10 04:23:41;;;;;;;4.55;3.65;;;11.30;99.90;;;;;;5023372;28;20199;-67
2022/10/10 04:26:08;;;;;;;3.33;3.00;;;11.30;99.90;;;;;;5014051;28;20211;-68
2022/10/10 04:28:35;;;;;;;4.13;3.70;;;11.30;99.90;;;;;;5030152;28;20207;-67
2022/10/10 04:31:03;;;;;;;3.30;3.00;;;11.40;99.90;;;;;;5033231;28;20206;-67
2022/10/10 04:33:30;;;;;;;3.55;3.25;;;11.40;99.90;;;;;;5032874;28;20203;-68
2022/10/10 04:35:57;;;;;;;4.47;3.75;;;11.40;99.90;;;;;;5033309;28;20217;-67
2022/10/10 04:38:23;;;;;;;3.70;3.40;;;11.40;99.90;;;;;;5033396;28;20686;-67
2022/10/10 04:40:50;;;;;;;4.07;3.63;;;11.40;99.90;;;;;;5033953;28;20202;-68
2022/10/10 04:43:18;;;;;;;3.80;3.38;;;11.30;99.90;;;;;;5033518;28;20202;-67
2022/10/10 04:45:45;;;;;;;4.30;3.38;;;11.30;99.90;;;;;;5033309;28;20218;-67
2022/10/10 04:48:13;;;;;;;8.48;4.35;;;11.30;99.90;;;;;;5033554;28;20217;-67
2022/10/10 04:50:40;;;;;;;3.75;3.42;;;11.30;99.90;;;;;;5033399;28;20220;-68
2022/10/10 04:53:06;;;;;;;3.72;3.40;;;11.30;99.90;;;;;;5033076;28;20256;-67
2022/10/10 04:55:34;;;;;;;5.05;3.88;;;11.30;99.90;;;;;;5033205;28;20222;-67
2022/10/10 04:58:01;;;;;;;6.65;4.10;;;11.30;99.90;;;;;;5033390;28;20209;-67
2022/10/10 05:00:28;;;;;;;4.15;3.65;;;11.30;99.90;;;;;;5033129;28;20206;-67
2022/10/10 05:02:55;;;;;;;4.03;3.63;;;11.30;99.90;;;;;;5032756;28;20209;-68
2022/10/10 05:05:23;;;;;;;4.20;3.60;;;11.30;99.90;;;;;;5033053;28;20797;-67
2022/10/10 05:07:49;;;;;;;4.40;3.97;;;11.30;99.90;;;;;;5033304;28;20229;-67
2022/10/10 05:10:16;;;;;;;4.32;3.92;;;11.30;99.90;;;;;;5033248;28;20202;-67
2022/10/10 05:12:43;;;;;;;4.45;3.75;;;11.30;99.90;;;;;;5032506;28;20206;-67
2022/10/10 05:15:10;;;;;;;4.25;3.80;;;11.30;99.90;;;;;;5031680;28;20232;-67
2022/10/10 05:17:37;;;;;;;4.40;4.00;;;11.20;99.90;;;;;;5032796;28;20198;-67
2022/10/10 05:20:04;;;;;;;5.32;3.92;;;11.20;99.90;;;;;;5032924;28;20215;-67
2022/10/10 05:22:33;;;;;;;6.18;3.25;;;11.20;99.90;;;;;;5032291;28;20588;-67
2022/10/10 05:24:59;;;;;;;7.68;3.15;;;11.20;99.90;;;;;;5032908;28;20218;-67
2022/10/10 05:27:27;;;;;;;4.40;3.97;;;11.20;99.90;;;;;;5032831;28;20606;-67
2022/10/10 05:29:54;;;;;;;3.60;3.30;;;11.20;99.90;;;;;;5032909;28;20218;-67
2022/10/10 05:32:21;;;;;;;3.63;3.00;;;11.20;99.90;;;;;;5032083;28;20206;-67
2022/10/10 05:34:48;;;;;;;7.97;3.95;;;11.20;99.90;;;;;;5032658;28;20223;-67
2022/10/10 05:37:15;;;;;;;5.47;4.45;;;11.20;99.90;;;;;;5032707;28;20199;-67
2022/10/10 05:39:43;;;;;;;4.28;3.85;;;11.20;99.90;;;;;;5032633;28;20202;-68
2022/10/10 05:42:09;;;;;;;4.20;3.80;;;11.20;99.90;;;;;;5032009;28;20206;-68
2022/10/10 05:44:36;;;;;;;5.13;4.05;;;11.10;99.90;;;;;;5031955;28;20233;-67
2022/10/10 05:47:03;;;;;;;4.53;3.50;;;11.10;99.90;;;;;;5032549;28;20697;-68
2022/10/10 05:49:30;;;;;;;5.53;3.53;;;11.10;99.90;;;;;;5032324;28;20206;-68
2022/10/10 05:51:57;;;;;;;5.00;3.60;;;11.10;99.90;;;;;;5031975;28;20203;-68
2022/10/10 05:54:23;;;;;;;4.18;3.78;;;11.10;99.90;;;;;;5032086;28;20229;-68
2022/10/10 05:56:51;;;;;;;4.63;3.80;;;11.20;99.90;;;;;;5032169;28;20198;-67
2022/10/10 05:59:18;;;;;;;4.07;3.20;;;11.30;99.90;;;;;;5032281;28;20206;-67
2022/10/10 06:01:45;;;;;;;4.50;3.38;;;11.30;99.90;;;;;;5031540;28;20207;-68
2022/10/10 06:06:39;;;;;;;3.80;3.10;;;11.40;99.90;;;;;;5087994;23;20230;-67
2022/10/10 06:09:06;;;;;;;3.80;3.50;;;11.40;99.90;;;;;;5042496;23;20322;-68
2022/10/10 06:11:33;;;;;;;4.05;3.33;;;11.40;99.90;;;;;;5031918;28;20191;-68
2022/10/10 06:14:02;;;;;;;3.40;3.03;;;11.50;99.90;;;;;;5032373;28;20230;-67
2022/10/10 06:16:29;;;;;;;3.53;3.22;;;11.50;99.90;;;;;;5032102;28;20464;-70
2022/10/10 06:18:56;;;;;;;3.88;3.03;;;11.50;99.90;;;;;;5031161;28;20587;-69
2022/10/10 06:21:23;;;;;;;6.35;4.03;;;11.60;99.90;;;;;;5031702;28;20206;-69
2022/10/10 06:23:50;;;;;;;3.70;3.00;;;11.60;99.90;;;;;;5031074;28;20228;-69
2022/10/10 06:26:17;;;;;;;3.20;2.90;;;11.70;99.90;;;;;;5031393;28;20206;-68
2022/10/10 06:28:45;;;;;;;5.45;3.70;;;11.70;99.90;;;;;;5031479;28;20237;-68
2022/10/10 06:31:14;;;;;;;5.30;3.30;;;11.70;99.90;;;;;;5047910;23;20226;-67
2022/10/10 06:33:44;;;;;;;5.30;3.38;;;11.80;99.90;;;;;;5019851;28;20297;-69
2022/10/10 06:36:13;;;;;;;3.37;3.00;;;11.80;99.90;;;;;;5012779;28;20258;-69
2022/10/10 06:38:41;;;;;;;3.60;2.90;;;11.90;99.90;;;;;;5028802;28;20452;-69
2022/10/10 06:41:09;;;;;;;3.80;3.05;;;12.00;99.90;;;;;;5033408;28;20662;-68
2022/10/10 06:43:37;;;;;;;3.35;3.05;;;12.10;99.90;;;;;;5026186;28;20302;-68
2022/10/10 06:46:05;;;;;;;4.28;3.40;;;12.10;99.90;;;;;;5013032;28;20625;-68
2022/10/10 06:48:36;;;;;;;3.63;3.33;;;12.20;99.90;;;;;;5011898;28;20306;-68
2022/10/10 06:51:07;;;;;;;3.38;2.65;;;12.20;99.90;;;;;;5013057;28;20720;-68
2022/10/10 06:53:34;;;;;;;3.28;3.00;;;12.30;99.90;;;;;;5225059;23;20229;-68
2022/10/10 06:56:04;;;;;;;5.57;3.43;;;12.20;99.90;;;;;;5052662;28;20292;-67
2022/10/10 06:58:32;;;;;;;3.43;3.13;;;12.30;99.90;;;;;;5039778;28;20447;-69
2022/10/10 07:01:04;;;;;;;3.40;2.57;;;12.40;99.90;;;;;;5221494;23;20493;-69
2022/10/10 07:03:33;;;;;;;3.40;3.10;;;12.40;99.90;;;;;;5050466;28;20448;-69
2022/10/10 07:06:01;;;;;;;3.50;2.80;;;12.50;99.90;;;;;;5051473;28;20507;-69
2022/10/10 07:08:29;;;;;;;5.10;3.90;;;12.60;99.90;;;;;;5050420;28;20583;-69
2022/10/10 07:10:56;;;;;;;4.00;3.60;;;12.70;99.90;;;;;;5050600;28;20208;-68
2022/10/10 07:13:23;;;;;;;3.77;3.47;;;12.80;99.90;;;;;;5050337;28;20661;-69
2022/10/10 07:15:50;;;;;;;4.90;3.13;;;12.90;99.90;;;;;;5053642;28;20464;-69
2022/10/10 07:18:18;;;;;;;3.33;2.90;;;13.00;99.90;;;;;;5050759;28;20456;-68
2022/10/10 07:20:48;;;;;;;3.20;2.80;;;13.10;99.90;;;;;;5050039;28;20463;-69
2022/10/10 07:23:16;;;;;;;3.80;2.33;;;13.10;99.90;;;;;;5049575;28;20907;-69
2022/10/10 07:25:43;;;;;;;3.50;2.90;;;13.20;99.90;;;;;;5050721;28;20983;-68
2022/10/10 07:28:11;;;;;;;3.10;2.47;;;13.30;99.90;;;;;;5050801;28;20483;-69
2022/10/10 07:30:39;;;;;;;3.73;3.00;;;13.30;99.90;;;;;;5050048;28;20478;-69
2022/10/10 07:33:06;;;;;;;3.27;2.47;;;13.40;99.90;;;;;;5049558;28;20464;-69
2022/10/10 07:35:33;;;;;;;4.17;3.20;;;13.40;99.90;;;;;;5050155;28;21006;-68
2022/10/10 07:38:02;;;;;;;4.23;2.80;;;13.50;99.90;;;;;;5039785;28;20453;-69
2022/10/10 07:40:28;;;;;;;3.30;2.60;;;13.50;99.90;;;;;;5030723;28;20464;-69
2022/10/10 07:42:55;;;;;;;3.53;2.83;;;13.60;99.90;;;;;;5030215;28;20465;-69
2022/10/10 07:45:22;;;;;;;4.07;2.83;;;13.60;99.90;;;;;;5031170;28;20480;-69
2022/10/10 07:47:49;;;;;;;3.23;2.67;;;13.60;99.90;;;;;;5030387;28;20485;-69
2022/10/10 07:50:16;;;;;;;3.50;2.70;;;13.70;99.90;;;;;;5030501;28;20461;-69
2022/10/10 07:52:42;;;;;;;7.13;3.07;;;13.70;99.90;;;;;;5027842;28;20544;-69
2022/10/10 07:55:11;;;;;;;2.90;2.50;;;13.60;99.90;;;;;;5030903;28;20485;-68
2022/10/10 07:57:37;;;;;;;4.80;3.00;;;13.70;99.90;;;;;;5029837;28;20457;-69
2022/10/10 08:00:07;;;;;;;3.73;3.00;;;13.70;99.90;;;;;;5029773;28;20468;-69
2022/10/10 08:02:34;;;;;;;4.10;3.30;;;13.70;99.90;;;;;;5029538;28;20571;-68
2022/10/10 08:05:01;;;;;;;3.03;2.73;;;13.70;99.90;;;;;;5030520;28;20481;-69
2022/10/10 08:07:28;;;;;;;3.80;3.20;;;13.70;99.90;;;;;;5030013;28;21011;-69
2022/10/10 08:09:54;;;;;;;3.40;3.10;;;13.70;99.90;;;;;;5029639;28;20465;-69
2022/10/10 08:12:22;;;;;;;4.33;3.13;;;13.70;99.90;;;;;;5029591;28;20461;-69
2022/10/10 08:14:49;;;;;;;4.67;3.60;;;13.70;99.90;;;;;;5029333;28;20853;-69
2022/10/10 08:17:16;;;;;;;4.17;3.47;;;13.70;99.90;;;;;;5034680;28;20481;-69
2022/10/10 08:19:43;;;;;;;3.30;3.00;;;13.70;99.90;;;;;;5037247;28;20457;-68
2022/10/10 08:22:10;;;;;;;3.93;3.17;;;13.70;99.90;;;;;;5049396;28;20466;-68
2022/10/10 08:24:36;;;;;;;4.90;3.17;;;13.70;99.90;;;;;;5050684;28;20484;-68
2022/10/10 08:27:03;;;;;;;3.17;2.70;;;13.80;99.90;;;;;;5046018;28;20944;-69
2022/10/10 08:29:32;;;;;;;4.07;3.10;;;13.80;99.90;;;;;;5039501;28;20464;-68
2022/10/10 08:31:59;;;;;;;4.20;2.83;;;13.90;99.90;;;;;;5049506;28;20467;-68
2022/10/10 08:34:26;;;;;;;3.47;3.17;;;14.00;99.90;;;;;;5049702;28;20844;-68
2022/10/10 08:36:52;;;;;;;2.70;2.50;;;13.90;99.90;;;;;;5049859;28;20460;-68
2022/10/10 08:39:19;;;;;;;4.77;2.67;;;14.00;99.90;;;;;;5050180;28;20467;-69
2022/10/10 08:41:51;;;;;;;3.13;2.83;;;14.10;99.90;;;;;;5049174;28;20467;-68
2022/10/10 08:44:23;;;;;;;3.70;2.83;;;14.10;99.90;;;;;;5050324;28;20475;-68
2022/10/10 08:46:54;;;;;;;4.67;3.00;;;14.20;99.90;;;;;;5049543;28;20515;-69
2022/10/10 08:49:26;;;;;;;3.40;2.57;;;14.20;99.90;;;;;;5051421;28;20456;-69
2022/10/10 08:52:00;;;;;;;3.60;2.43;;;14.30;99.90;;;;;;5052544;28;20460;-68
2022/10/10 08:54:29;;;;;;;3.50;2.30;;;14.40;99.90;;;;;;5053722;28;20480;-68
2022/10/10 08:56:59;;;;;;;2.67;2.30;;;14.50;99.90;;;;;;5053022;28;20471;-68
2022/10/10 08:59:30;;;;;;;3.47;2.63;;;14.60;99.90;;;;;;5053241;28;20897;-69
2022/10/10 09:07:10;;;;;;;2.63;2.43;;;15.00;99.90;;;;;;5029618;28;20737;-68
2022/10/10 09:09:43;;;;;;;3.40;3.00;;;15.20;99.90;;;;;;5033048;28;20464;-68
2022/10/10 09:12:21;;;;;;;2.93;2.10;;;15.30;99.90;;;;;;5032349;28;20836;-68
2022/10/10 09:14:55;;;;;;;3.07;2.43;;;15.40;99.90;;;;;;5033508;28;20492;-69
2022/10/10 09:17:33;;;;;;;2.70;2.13;;;15.50;99.90;;;;;;5033942;28;20827;-69
2022/10/10 09:20:15;;;;;;;2.13;1.93;;;15.70;99.90;;;;;;5033703;28;20785;-68
2022/10/10 09:22:52;;;;;;;7.90;2.73;;;15.80;99.90;;;;;;5032427;28;20461;-68
2022/10/10 09:25:23;;;;;;;2.83;2.50;;;15.90;99.90;;;;;;5033946;28;20485;-69
2022/10/10 09:27:58;;;;;;;3.83;2.20;;;16.00;99.90;;;;;;5032877;28;20481;-69
2022/10/10 09:30:26;;;;;;;2.33;2.10;;;16.10;99.90;;;;;;5032882;28;20464;-69
2022/10/10 09:32:57;;;;;;;2.23;1.83;;;16.10;99.90;;;;;;5031628;28;20473;-68
2022/10/10 09:35:26;;;;;;;4.33;2.30;;;16.20;99.90;;;;;;5032947;28;20481;-68
2022/10/10 09:38:00;;;;;;;2.27;2.00;;;16.30;99.90;;;;;;5031374;28;20469;-68
2022/10/10 09:40:30;;;;;;;2.77;2.50;;;16.40;99.90;;;;;;5032373;28;20948;-69
2022/10/10 09:42:57;;;;;;;2.70;2.40;;;16.60;99.90;;;;;;5032485;28;20964;-68
2022/10/10 09:45:30;;;;;;;2.17;1.87;;;16.70;99.90;;;;;;5031773;28;20866;-68
2022/10/10 09:47:58;;;;;;;2.20;1.97;;;16.80;99.90;;;;;;5031785;28;20507;-69
2022/10/10 09:50:25;;;;;;;5.50;2.70;;;16.90;99.90;;;;;;5031658;28;20465;-69
2022/10/10 09:52:54;;;;;;;2.03;1.83;;;16.90;99.90;;;;;;5030971;28;20468;-68
2022/10/10 09:55:25;;;;;;;2.53;2.07;;;16.90;99.90;;;;;;5031883;28;20481;-69
2022/10/10 09:57:54;;;;;;;2.40;2.10;;;17.00;99.90;;;;;;5032607;28;20461;-69
2022/10/10 10:00:35;;;;;;;3.50;2.40;;;17.00;99.90;;;;;;5030662;28;20467;-69
2022/10/10 10:03:13;;;;;;;2.70;2.30;;;17.00;99.90;;;;;;5030974;28;20534;-69
2022/10/10 10:05:43;;;;;;;2.10;1.83;;;17.00;99.90;;;;;;5031223;28;20488;-69
2022/10/10 10:08:29;;;;;;;2.37;2.17;;;17.10;99.90;;;;;;5031305;28;20488;-68
2022/10/10 10:10:57;;;;;;;2.30;2.03;;;17.10;99.90;;;;;;5031105;28;20464;-69
2022/10/10 10:13:29;;;;;;;2.20;2.00;;;17.20;99.90;;;;;;5030153;28;20464;-68
2022/10/10 10:16:02;;;;;;;2.40;2.20;;;17.30;99.90;;;;;;5031428;28;20468;-69
2022/10/10 10:18:30;;;;;;;2.03;1.83;;;17.40;99.90;;;;;;5031408;28;21062;-69
2022/10/10 10:21:14;;;;;;;3.20;2.40;;;17.60;99.90;;;;;;5030992;28;20468;-68
2022/10/10 10:23:49;;;;;;;2.10;1.90;;;17.60;99.90;;;;;;5031053;28;20472;-69
2022/10/10 10:26:19;;;;;;;5.90;2.03;;;17.70;99.90;;;;;;5031006;28;20811;-68
2022/10/10 10:28:48;;;;;;;3.37;2.20;;;17.70;99.90;;;;;;5030378;28;20492;-68
2022/10/10 10:31:22;;;;;;;2.13;1.97;;;17.90;99.90;;;;;;5029344;28;20464;-68
2022/10/10 10:33:56;;;;;;;2.10;1.90;;;18.00;99.90;;;;;;5030950;28;20485;-69
2022/10/10 10:36:33;;;;;;;2.60;2.10;;;18.10;99.90;;;;;;5031369;28;20968;-68
2022/10/10 10:39:15;;;;;;;2.13;1.70;;;18.20;99.90;;;;;;5030717;28;20480;-68
2022/10/10 10:41:51;;;;;;;2.53;2.27;;;18.20;99.90;;;;;;5030415;28;20457;-68
2022/10/10 10:44:27;;;;;;;3.50;1.70;;;18.20;99.90;;;;;;5030947;28;20481;-69
2022/10/10 10:47:06;;;;;;;2.70;1.90;;;18.20;99.90;;;;;;5030711;28;20460;-68
2022/10/10 10:49:39;;;;;;;4.43;1.97;;;18.30;99.90;;;;;;5030761;28;20981;-68
2022/10/10 10:52:35;;;;;;;3.80;2.47;;;18.20;99.90;;;;;;5029960;28;20457;-68
2022/10/10 10:55:17;;;;;;;2.20;1.80;;;18.20;99.90;;;;;;5023865;28;20492;-68
2022/10/10 10:57:59;;;;;;;3.00;2.27;;;18.40;99.90;;;;;;5030396;28;20468;-68
2022/10/10 11:00:27;;;;;;;2.70;2.17;;;18.50;99.90;;;;;;5028781;28;20460;-68
2022/10/10 11:03:09;;;;;;;4.13;1.97;;;18.60;99.90;;;;;;5028074;28;20829;-69
2022/10/10 11:05:38;;;;;;;4.80;3.00;;;18.70;99.90;;;;;;5028766;28;21011;-69
2022/10/10 11:08:22;;;;;;;3.03;2.17;;;18.90;99.90;;;;;;5030956;28;20492;-68
2022/10/10 11:10:59;;;;;;;2.10;1.90;;;19.20;99.90;;;;;;5030578;28;20973;-69
2022/10/10 11:13:34;;;;;;;3.87;2.47;;;19.60;99.90;;;;;;5028962;28;20465;-68
2022/10/10 11:16:10;;;;;;;3.10;2.20;;;20.10;99.90;;;;;;5029014;28;20560;-68
2022/10/10 11:18:43;;;;;;;2.63;2.10;;;20.40;99.90;;;;;;5030001;28;20457;-68
2022/10/10 11:21:15;;;;;;;2.57;2.10;;;20.70;99.90;;;;;;5029990;28;20971;-69
2022/10/10 11:23:47;;;;;;;2.00;1.80;;;21.00;99.90;;;;;;5030200;28;20463;-68
2022/10/10 11:26:21;;;;;;;1.67;1.57;;;21.20;99.90;;;;;;5030766;28;20833;-69
2022/10/10 11:28:53;;;;;;;2.37;2.17;;;21.30;99.90;;;;;;5082387;22;20479;-94
2022/10/10 11:31:24;;;;;;;2.07;1.83;;;21.50;99.90;;;;;;5079058;22;20503;-68
2022/10/10 11:33:56;;;;;;;5.10;1.87;;;21.80;99.90;;;;;;5050248;28;20476;-68
2022/10/10 11:36:25;;;;;;;3.47;2.50;;;22.00;99.90;;;;;;5049976;28;20823;-68
2022/10/10 11:38:59;;;;;;;2.70;2.30;;;22.10;99.90;;;;;;5050335;28;20457;-68
2022/10/10 11:41:32;;;;;;;7.03;2.63;;;22.20;99.90;;;;;;5049271;28;20460;-68
2022/10/10 11:44:05;;;;;;;5.40;2.70;;;22.30;99.90;;;;;;5049964;28;20502;-68
2022/10/10 11:46:39;;;;;;;2.70;2.40;;;22.40;99.90;;;;;;5050155;28;20512;-68
2022/10/10 11:49:14;;;;;;;2.97;2.00;;;22.60;99.90;;;;;;5050203;28;20490;-68
2022/10/10 11:52:01;;;;;;;3.50;1.90;;;22.40;99.90;;;;;;5048816;28;20545;-68
2022/10/10 11:54:36;;;;;;;4.47;2.20;;;22.40;99.90;;;;;;5049265;28;20491;-68
2022/10/10 11:57:12;;;;;;;2.73;1.83;;;22.60;99.90;;;;;;5050345;28;20460;-68
2022/10/10 11:59:44;;;;;;;3.13;2.17;;;22.70;99.90;;;;;;5049386;28;20969;-68
2022/10/10 12:02:17;;;;;;;3.63;2.83;;;22.70;99.90;;;;;;5049468;28;20464;-68
2022/10/10 12:04:44;;;;;;;3.07;2.43;;;22.90;99.90;;;;;;5049634;28;20482;-68
2022/10/10 12:07:16;;;;;;;4.00;2.33;;;23.00;99.90;;;;;;5049242;28;20471;-68
2022/10/10 12:09:47;;;;;;;4.50;2.70;;;22.60;99.90;;;;;;5049665;28;20546;-68
2022/10/10 12:12:21;;;;;;;7.87;2.67;;;22.50;99.90;;;;;;5049324;28;20465;-68
2022/10/10 12:14:53;;;;;;;6.37;2.17;;;22.60;99.90;;;;;;5049469;28;20479;-68
2022/10/10 12:17:22;;;;;;;3.60;1.90;;;22.70;99.90;;;;;;5049859;28;20460;-68
2022/10/10 12:19:51;;;;;;;4.83;2.30;;;22.70;99.90;;;;;;5048330;28;20451;-68
2022/10/10 12:22:27;;;;;;;3.00;2.13;;;23.00;99.90;;;;;;5049282;28;20471;-68
2022/10/10 12:25:21;;;;;;;2.77;2.47;;;23.20;99.90;;;;;;5049923;28;20479;-68
2022/10/10 12:28:04;;;;;;;4.50;2.67;;;23.40;99.90;;;;;;5052231;28;20551;-68
2022/10/10 12:30:31;;;;;;;4.17;2.33;;;23.20;99.90;;;;;;5052282;28;20455;-68
2022/10/10 12:32:58;;;;;;;5.67;2.40;;;23.20;99.90;;;;;;5051943;28;20463;-68
2022/10/10 12:35:31;;;;;;;4.20;2.87;;;23.40;99.90;;;;;;5051860;28;20506;-67
2022/10/10 12:38:16;;;;;;;4.20;2.43;;;23.60;99.90;;;;;;5052331;28;20478;-68
2022/10/10 12:41:09;;;;;;;2.43;2.20;;;23.70;99.90;;;;;;5052379;28;20463;-68
2022/10/10 12:43:41;;;;;;;4.43;2.63;;;23.80;99.90;;;;;;5051067;28;20479;-68
2022/10/10 12:46:17;;;;;;;5.80;2.60;;;24.00;99.90;;;;;;5052482;28;20464;-68
2022/10/10 12:48:45;;;;;;;7.77;2.37;;;24.00;99.90;;;;;;5052016;28;20498;-67
2022/10/10 12:51:21;;;;;;;2.60;2.00;;;24.10;99.90;;;;;;5051553;28;20488;-68
2022/10/10 12:53:52;;;;;;;2.50;1.90;;;24.10;99.90;;;;;;5052141;28;20484;-67
2022/10/10 12:56:39;;;;;;;2.83;2.40;;;24.10;99.90;;;;;;5051802;28;20468;-68
2022/10/10 12:59:18;;;;;;;4.97;2.40;;;24.30;99.90;;;;;;5051652;28;20460;-68
2022/10/10 13:01:51;;;;;;;5.33;2.90;;;24.10;99.90;;;;;;5051492;28;20497;-68
2022/10/10 13:04:20;;;;;;;3.07;2.47;;;24.00;99.90;;;;;;5051490;28;20484;-68
2022/10/10 13:06:48;;;;;;;7.83;2.90;;;23.50;99.90;;;;;;5051730;28;20452;-67
2022/10/10 13:09:19;;;;;;;4.80;2.50;;;23.20;99.90;;;;;;5051578;28;20488;-68
2022/10/10 13:11:54;;;;;;;3.40;1.90;;;23.10;99.90;;;;;;5050255;28;20483;-68